Onde está Monte da Fajarda en Portugal?

Monte da Fajarda está situado na região Santarem em Portugal!

Buscar o nome de uma cidade:

Monte Biamuroa, Mont Katépahié, Mont Ovlibé, Monte Tràunig, Monte Gelkhamar

Aqui você vai encontrar a localização de Monte da Fajarda em um mapa.
Para ver como ele atualmente parece, abaixo estão algumas fotos da região, com webcams online.
Você também pode encontrar a distância para as principais cidades da região e de cidades do resto do Portugal.

Todos os lugares do mundo chamado .

new

Onde está Monte da Fajarda no mapa?


Webcams perto Monte da Fajarda

Vasco Carão > South: Garrocheira, Benavente - Airport.


Vasco Carão > South: Garrocheira, Benavente - Airport - Dia
Actual
Vasco Carão > South: Garrocheira, Benavente - Airport - Actual

Benavente > North-East: AIrport, METAR: BENAV 180005Z 36004KT 17/14 Q1015.


Benavente > North-East: AIrport, METAR: BENAV 180005Z 36004KT 17/14 Q1015 - Dia
Actual
Benavente > North-East: AIrport, METAR: BENAV 180005Z 36004KT 17/14 Q1015 - Actual

Lisbon > South: Rua Vasco da Gama.


Lisbon > South: Rua Vasco da Gama - Dia
Actual
Lisbon > South: Rua Vasco da Gama - Actual

Webcams provided by webcams.travel

Distâncias

Onde está Monte da Fajarda em relação a outros lugares?

Top 10 cidades em Santarem e distância de Monte da Fajarda.

Cidade#Populaçãokmmilhas
Santarém1293853119
Entroncamento2198875635
Tomar3191687245
Torres Novas4145265635
Samora Correia5141542415
Abrantes6136466440
Ourém7127297446
Rio Maior8120645031
Fátima9117987245
Almeirim10115562616

Top 10 cidades em Portugal e distância de Monte da Fajarda.

Cidade # Populaçãokmmilhas
Lisbon15177985534
Porto2249630243151
Amadora31788566138
Braga4121393286178
Setúbal51171095534
Coimbra610658013886
Queluz71033986138
Funchal8980411028639
Vila Nova de Gaia970810240149
Loures10662305132